createdAt,value
2023-05-07T00:01:44.522Z,100539.88
2023-05-07T00:04:13.400Z,100540.97
2023-05-07T00:06:42.308Z,100544.31
2023-05-07T00:09:12.211Z,100542.66
2023-05-07T00:11:40.927Z,100544.31
2023-05-07T00:14:09.448Z,100544.09
2023-05-07T00:16:37.942Z,100540.47
2023-05-07T00:19:07.199Z,100549.38
2023-05-07T00:21:36.237Z,100546.03
2023-05-07T00:24:05.291Z,100550.47
2023-05-07T00:26:35.065Z,100546.03
2023-05-07T00:29:03.539Z,100549.63
2023-05-07T00:31:32.007Z,100554.34
2023-05-07T00:34:00.502Z,100548.50
2023-05-07T00:36:29.350Z,100561.72
2023-05-07T00:38:59.101Z,100553.78
2023-05-07T00:41:27.775Z,100559.34
2023-05-07T00:43:58.037Z,100562.13
2023-05-07T00:46:27.215Z,100556.00
2023-05-07T00:48:56.426Z,100561.28
2023-05-07T00:51:26.131Z,100567.97
2023-05-07T00:53:54.947Z,100567.97
2023-05-07T00:56:24.168Z,100559.59
2023-05-07T00:58:53.054Z,100573.53
2023-05-07T01:01:24.168Z,100567.69
2023-05-07T01:03:52.703Z,100567.69
2023-05-07T01:06:23.178Z,100573.81
2023-05-07T01:08:54.220Z,100560.66
2023-05-07T01:11:22.928Z,100568.22
2023-05-07T01:13:53.058Z,100569.03
2023-05-07T01:16:23.687Z,100567.34
2023-05-07T01:18:52.407Z,100572.41
2023-05-07T01:21:20.927Z,100569.03
2023-05-07T01:23:51.911Z,100577.44
2023-05-07T01:26:20.807Z,100572.63
2023-05-07T01:28:49.842Z,100571.66
2023-05-07T01:31:19.879Z,100569.28
2023-05-07T01:33:51.436Z,100564.72
2023-05-07T01:36:24.115Z,100562.34
2023-05-07T01:38:54.723Z,100575.28
2023-05-07T01:41:23.985Z,100574.31
2023-05-07T01:43:53.529Z,100576.13
2023-05-07T01:46:22.475Z,100577.81
2023-05-07T01:48:52.352Z,100580.56
2023-05-07T01:51:22.801Z,100578.91
2023-05-07T01:53:52.260Z,100579.31
2023-05-07T01:56:22.596Z,100585.44
2023-05-07T01:58:52.358Z,100579.44
2023-05-07T02:01:20.855Z,100578.72
2023-05-07T02:03:49.904Z,100567.00
2023-05-07T02:06:18.400Z,100576.50
2023-05-07T02:08:47.382Z,100576.50
2023-05-07T02:11:15.880Z,100573.28
2023-05-07T02:13:46.024Z,100587.63
2023-05-07T02:16:15.552Z,100588.69
2023-05-07T02:18:44.027Z,100591.50
2023-05-07T02:21:12.521Z,100589.81
2023-05-07T02:23:41.010Z,100584.38
2023-05-07T02:26:09.642Z,100587.28
2023-05-07T02:28:38.657Z,100582.84
2023-05-07T02:31:08.617Z,100591.34
2023-05-07T02:33:37.828Z,100591.75
2023-05-07T02:36:11.059Z,100589.22
2023-05-07T02:38:39.879Z,100598.84
2023-05-07T02:41:08.693Z,100592.84
2023-05-07T02:43:37.495Z,100588.09
2023-05-07T02:46:08.876Z,100594.22
2023-05-07T02:48:38.043Z,100598.66
2023-05-07T02:51:07.847Z,100596.88
2023-05-07T02:53:36.336Z,100601.75
2023-05-07T02:56:05.155Z,100600.66
2023-05-07T02:58:33.611Z,100608.44
2023-05-07T03:01:02.023Z,100607.03
2023-05-07T03:03:31.986Z,100603.69
2023-05-07T03:06:00.641Z,100610.09
2023-05-07T03:08:29.208Z,100604.03
2023-05-07T03:10:57.705Z,100591.34
2023-05-07T03:13:26.397Z,100614.41
2023-05-07T03:15:55.403Z,100613.59
2023-05-07T03:18:24.027Z,100613.44
2023-05-07T03:20:54.867Z,100613.31
2023-05-07T03:23:24.937Z,100625.84
2023-05-07T03:25:53.706Z,100609.97
2023-05-07T03:28:22.285Z,100620.66
2023-05-07T03:30:51.012Z,100626.66
2023-05-07T03:33:19.634Z,100624.16
2023-05-07T03:35:48.194Z,100626.34
2023-05-07T03:38:18.084Z,100633.88
2023-05-07T03:40:47.026Z,100625.94
2023-05-07T03:43:15.568Z,100626.66
2023-05-07T03:45:44.830Z,100635.44
2023-05-07T03:48:13.427Z,100638.06
2023-05-07T03:50:41.958Z,100633.88
2023-05-07T03:53:13.832Z,100638.59
2023-05-07T03:55:43.731Z,100646.63
2023-05-07T03:58:12.314Z,100651.81
2023-05-07T04:00:42.136Z,100653.59
2023-05-07T04:03:10.690Z,100656.22
2023-05-07T04:05:39.449Z,100664.78
2023-05-07T04:08:08.107Z,100672.47
2023-05-07T04:10:36.596Z,100677.75
2023-05-07T04:13:07.094Z,100677.63
2023-05-07T04:15:35.640Z,100685.44
2023-05-07T04:18:04.174Z,100672.47
2023-05-07T04:20:32.616Z,100690.59
2023-05-07T04:23:01.076Z,100686.25
2023-05-07T04:25:29.897Z,100689.75
2023-05-07T04:27:58.372Z,100697.69
2023-05-07T04:30:28.590Z,100695.63
2023-05-07T04:32:57.448Z,100705.47
2023-05-07T04:35:26.225Z,100695.41
2023-05-07T04:37:54.870Z,100688.81
2023-05-07T04:40:23.596Z,100711.72
2023-05-07T04:42:52.599Z,100704.75
2023-05-07T04:45:21.303Z,100720.34
2023-05-07T04:47:51.506Z,100715.22
2023-05-07T04:50:21.345Z,100729.25
2023-05-07T04:52:49.881Z,100726.59
2023-05-07T04:55:18.514Z,100717.72
2023-05-07T04:57:46.962Z,100716.75
2023-05-07T05:00:17.798Z,100727.81
2023-05-07T05:02:46.455Z,100731.31
2023-05-07T05:05:16.456Z,100738.66
2023-05-07T05:07:45.002Z,100737.69
2023-05-07T05:10:13.720Z,100734.78
2023-05-07T05:12:42.241Z,100738.50
2023-05-07T05:15:12.041Z,100734.44
2023-05-07T05:17:40.721Z,100743.69
2023-05-07T05:20:12.129Z,100739.25
2023-05-07T05:22:42.589Z,100754.84
2023-05-07T05:25:11.417Z,100755.69
2023-05-07T05:27:39.757Z,100761.81
2023-05-07T05:30:10.704Z,100766.00
2023-05-07T05:32:39.327Z,100760.13
2023-05-07T05:35:08.370Z,100774.16
2023-05-07T05:37:36.883Z,100770.44
2023-05-07T05:40:08.491Z,100773.66
2023-05-07T05:42:37.263Z,100770.91
2023-05-07T05:45:06.257Z,100760.34
2023-05-07T05:47:35.543Z,100758.53
2023-05-07T05:50:04.227Z,100768.13
2023-05-07T05:52:32.851Z,100768.84
2023-05-07T05:55:01.890Z,100765.94
2023-05-07T05:57:31.673Z,100771.69
2023-05-07T06:00:00.320Z,100772.28
2023-05-07T06:02:29.112Z,100772.03
2023-05-07T06:04:57.736Z,100778.03
2023-05-07T06:07:26.398Z,100783.16
2023-05-07T06:09:54.799Z,100781.50
2023-05-07T06:12:23.650Z,100789.16
2023-05-07T06:14:54.758Z,100780.53
2023-05-07T06:17:25.805Z,100771.78
2023-05-07T06:19:55.149Z,100786.78
2023-05-07T06:22:23.577Z,100784.03
2023-05-07T06:24:52.026Z,100788.34
2023-05-07T06:27:20.557Z,100804.06
2023-05-07T06:29:50.578Z,100801.06
2023-05-07T06:32:21.662Z,100797.19
2023-05-07T06:34:50.156Z,100803.03
2023-05-07T06:37:18.563Z,100806.91
2023-05-07T06:39:47.026Z,100816.91
2023-05-07T06:42:15.651Z,100813.69
2023-05-07T06:44:44.640Z,100817.28
2023-05-07T06:47:15.720Z,100818.50
2023-05-07T06:49:46.200Z,100826.84
2023-05-07T06:52:14.715Z,100824.56
2023-05-07T06:54:43.190Z,100830.94
2023-05-07T06:57:11.619Z,100833.44
2023-05-07T06:59:40.044Z,100840.66
2023-05-07T07:02:09.868Z,100833.91
2023-05-07T07:04:39.810Z,100845.19
2023-05-07T07:07:10.422Z,100834.56
2023-05-07T07:09:39.051Z,100847.38
2023-05-07T07:12:07.929Z,100846.41
2023-05-07T07:14:36.410Z,100850.47
2023-05-07T07:17:06.406Z,100839.91
2023-05-07T07:19:34.890Z,100850.84
2023-05-07T07:22:05.474Z,100845.16
2023-05-07T07:24:35.464Z,100844.84
2023-05-07T07:27:04.393Z,100857.69
2023-05-07T07:29:33.048Z,100860.56
2023-05-07T07:32:04.513Z,100847.97
2023-05-07T07:34:33.193Z,100856.13
2023-05-07T07:37:06.502Z,100867.16
2023-05-07T07:39:38.847Z,100869.66
2023-05-07T07:42:07.849Z,100877.34
2023-05-07T07:44:36.652Z,100873.47
2023-05-07T07:47:05.154Z,100883.81
2023-05-07T07:49:33.697Z,100888.13
2023-05-07T07:52:02.202Z,100887.41
2023-05-07T07:54:31.846Z,100882.56
2023-05-07T07:57:02.757Z,100900.91
2023-05-07T07:59:31.461Z,100901.63
2023-05-07T08:02:00.221Z,100902.59
2023-05-07T08:04:28.849Z,100905.63
2023-05-07T08:06:57.504Z,100904.19
2023-05-07T08:09:26.111Z,100903.59
2023-05-07T08:11:54.787Z,100908.56
2023-05-07T08:14:25.979Z,100905.44
2023-05-07T08:16:54.559Z,100891.28
2023-05-07T08:19:23.616Z,100902.31
2023-05-07T08:21:52.687Z,100911.81
2023-05-07T08:24:24.237Z,100904.59
2023-05-07T08:26:52.688Z,100908.19
2023-05-07T08:29:21.160Z,100906.41
2023-05-07T08:31:51.590Z,100912.41
2023-05-07T08:34:20.034Z,100920.41
2023-05-07T08:36:50.539Z,100919.13
2023-05-07T08:39:19.090Z,100925.47
2023-05-07T08:41:48.696Z,100928.84
2023-05-07T08:44:24.304Z,100935.81
2023-05-07T08:46:56.547Z,100926.19
2023-05-07T08:49:25.124Z,100925.00
2023-05-07T08:51:53.820Z,100937.25
2023-05-07T08:54:23.320Z,100948.31
2023-05-07T08:56:52.081Z,100942.19
2023-05-07T08:59:20.523Z,100943.88
2023-05-07T09:01:49.106Z,100944.69
2023-05-07T09:04:19.556Z,100935.31
2023-05-07T09:06:49.520Z,100945.03
2023-05-07T09:09:19.986Z,100952.59
2023-05-07T09:11:55.321Z,100953.31
2023-05-07T09:14:26.996Z,100937.69
2023-05-07T09:16:55.505Z,100943.66
2023-05-07T09:19:27.435Z,100947.22
2023-05-07T09:22:02.273Z,100934.00
2023-05-07T09:24:35.111Z,100955.06
2023-05-07T09:27:03.865Z,100960.66
2023-05-07T09:29:36.527Z,100952.00
2023-05-07T09:32:06.239Z,100952.16
2023-05-07T09:34:37.440Z,100958.75
2023-05-07T09:37:08.471Z,100961.00
2023-05-07T09:39:43.776Z,100960.44
2023-05-07T09:42:13.495Z,100962.13
2023-05-07T09:44:42.668Z,100959.34
2023-05-07T09:47:13.134Z,100964.63
2023-05-07T09:49:45.283Z,100948.66
2023-05-07T09:52:15.952Z,100955.16
2023-05-07T09:54:45.755Z,100953.53
2023-05-07T09:57:16.150Z,100943.03
2023-05-07T09:59:46.251Z,100951.13
2023-05-07T10:02:17.589Z,100967.19
2023-05-07T10:04:49.210Z,100965.97
2023-05-07T10:07:19.093Z,100960.41
2023-05-07T10:09:49.469Z,100964.47
2023-05-07T10:12:19.533Z,100968.47
2023-05-07T10:14:49.506Z,100967.13
2023-05-07T10:17:21.381Z,100980.38
2023-05-07T10:19:53.452Z,100967.31
2023-05-07T10:22:23.089Z,100978.53
2023-05-07T10:24:55.949Z,100969.03
2023-05-07T10:27:26.435Z,100981.38
2023-05-07T10:30:10.379Z,100978.19
2023-05-07T10:32:42.891Z,100970.66
2023-05-07T10:35:19.722Z,100963.34
2023-05-07T10:37:48.798Z,100961.41
2023-05-07T10:40:19.029Z,100973.09
2023-05-07T10:42:58.785Z,100976.69
2023-05-07T10:45:28.349Z,100985.38
2023-05-07T10:48:27.215Z,100972.38
2023-05-07T10:51:21.877Z,100976.19
2023-05-07T10:53:51.048Z,100974.50
2023-05-07T10:56:32.365Z,100970.88
2023-05-07T10:59:45.684Z,100974.22
2023-05-07T11:02:15.568Z,100970.69
2023-05-07T11:04:46.429Z,100978.38
2023-05-07T11:07:32.574Z,100979.69
2023-05-07T11:10:14.168Z,100978.66
2023-05-07T11:12:56.556Z,100981.31
2023-05-07T11:15:39.530Z,100969.47
2023-05-07T11:18:08.441Z,100970.34
2023-05-07T11:21:08.310Z,100971.75
2023-05-07T11:24:11.969Z,100983.41
2023-05-07T11:26:49.255Z,100992.06
2023-05-07T11:29:22.679Z,100983.34
2023-05-07T11:31:55.395Z,100993.28
2023-05-07T11:34:25.100Z,100988.28
2023-05-07T11:36:55.268Z,100993.19
2023-05-07T11:39:30.104Z,100994.97
2023-05-07T11:41:58.602Z,100996.94
2023-05-07T11:44:27.606Z,101005.84
2023-05-07T11:46:56.275Z,100999.47
2023-05-07T11:49:31.382Z,101001.47
2023-05-07T11:51:59.918Z,101015.97
2023-05-07T11:54:38.665Z,101018.03
2023-05-07T11:57:08.797Z,101026.56
2023-05-07T11:59:42.413Z,101011.16
2023-05-07T12:02:11.362Z,101024.84
2023-05-07T12:04:41.206Z,101021.84
2023-05-07T12:07:17.221Z,101032.38
2023-05-07T12:09:49.313Z,101026.31
2023-05-07T12:12:18.626Z,101026.19
2023-05-07T12:14:48.535Z,101032.03
2023-05-07T12:17:17.875Z,101012.13
2023-05-07T12:19:47.852Z,101012.56
2023-05-07T12:22:16.454Z,101034.31
2023-05-07T12:24:49.411Z,101040.31
2023-05-07T12:27:19.161Z,101040.84
2023-05-07T12:29:48.840Z,101032.00
2023-05-07T12:32:20.681Z,101041.81
2023-05-07T12:34:53.412Z,101035.91
2023-05-07T12:37:31.024Z,101048.38
2023-05-07T12:40:10.375Z,101041.38
2023-05-07T12:42:40.106Z,101043.78
2023-05-07T12:45:13.117Z,101045.72
2023-05-07T12:47:42.214Z,101040.22
2023-05-07T12:50:11.030Z,101055.75
2023-05-07T12:52:40.049Z,101048.19
2023-05-07T12:55:11.570Z,101033.25
2023-05-07T12:57:43.966Z,101043.66
2023-05-07T13:00:14.111Z,101052.59
2023-05-07T13:02:45.884Z,101054.53
2023-05-07T13:05:14.749Z,101055.94
2023-05-07T13:07:43.507Z,101057.00
2023-05-07T13:10:13.864Z,101060.59
2023-05-07T13:12:42.408Z,101061.47
2023-05-07T13:15:11.963Z,101071.22
2023-05-07T13:17:40.817Z,101060.09
2023-05-07T13:20:11.469Z,101070.88
2023-05-07T13:22:40.032Z,101065.72
2023-05-07T13:25:10.263Z,101079.03
2023-05-07T13:27:40.434Z,101075.72
2023-05-07T13:30:09.966Z,101079.59
2023-05-07T13:32:38.514Z,101082.97
2023-05-07T13:35:08.010Z,101078.44
2023-05-07T13:37:36.511Z,101087.56
2023-05-07T13:40:05.949Z,101092.59
2023-05-07T13:42:34.604Z,101097.19
2023-05-07T13:45:06.322Z,101094.16
2023-05-07T13:47:35.312Z,101091.19
2023-05-07T13:50:04.144Z,63291.66
2023-05-07T13:52:32.732Z,63291.66
2023-05-07T13:55:01.833Z,63291.66
2023-05-07T13:57:30.327Z,63291.66
2023-05-07T13:59:58.907Z,63291.66
2023-05-07T14:02:28.935Z,63291.66
2023-05-07T14:04:57.495Z,63291.66
2023-05-07T14:07:26.070Z,63291.66
2023-05-07T14:09:54.585Z,63291.66
2023-05-07T14:12:23.147Z,63291.66
2023-05-07T14:14:52.486Z,63291.66
2023-05-07T14:17:24.518Z,63291.66
2023-05-07T14:19:56.202Z,63291.66
2023-05-07T14:22:25.205Z,63291.66
2023-05-07T14:25:05.921Z,63291.66
2023-05-07T14:27:35.595Z,63291.66
2023-05-07T14:30:04.363Z,63291.66
2023-05-07T14:32:34.167Z,63291.66
2023-05-07T14:35:05.235Z,63291.66
2023-05-07T14:37:38.239Z,63291.66
2023-05-07T14:40:11.610Z,63291.66
2023-05-07T14:42:42.977Z,63291.66
2023-05-07T14:45:14.253Z,63291.66
2023-05-07T14:47:43.412Z,63291.66
2023-05-07T14:50:13.532Z,63291.66
2023-05-07T14:52:42.143Z,63291.66
2023-05-07T14:55:11.564Z,63291.66
2023-05-07T14:57:40.320Z,63291.66
2023-05-07T15:00:19.477Z,63291.66
2023-05-07T15:02:48.157Z,63291.66
2023-05-07T15:05:19.859Z,63291.66
2023-05-07T15:07:48.876Z,63291.66
2023-05-07T15:10:17.498Z,63291.66
2023-05-07T15:12:46.144Z,63291.66
2023-05-07T15:15:14.993Z,63291.66
2023-05-07T15:17:44.090Z,63291.66
2023-05-07T15:20:13.341Z,63291.66
2023-05-07T15:22:43.307Z,63291.66
2023-05-07T15:25:13.329Z,63291.66
2023-05-07T15:27:42.028Z,63291.66
2023-05-07T15:30:12.265Z,63291.66
2023-05-07T15:32:41.916Z,63291.66
2023-05-07T15:35:12.885Z,63291.66
2023-05-07T15:37:43.876Z,63291.66
2023-05-07T15:40:15.991Z,63291.66
2023-05-07T15:42:44.837Z,63291.66
2023-05-07T15:45:14.483Z,63291.66
2023-05-07T15:47:44.713Z,63291.66
2023-05-07T15:50:14.530Z,63291.66
2023-05-07T15:52:46.479Z,63291.66
2023-05-07T15:55:19.666Z,63291.66
2023-05-07T15:57:49.897Z,63291.66
2023-05-07T16:00:21.245Z,63291.66
2023-05-07T16:02:50.520Z,63291.66
2023-05-07T16:05:22.622Z,63291.66
2023-05-07T16:07:53.128Z,63291.66
2023-05-07T16:10:22.750Z,63291.66
2023-05-07T16:12:52.178Z,63291.66
2023-05-07T16:15:21.064Z,63291.66
2023-05-07T16:17:51.967Z,63291.66
2023-05-07T16:20:22.217Z,63291.66
2023-05-07T16:22:54.982Z,63291.66
2023-05-07T16:25:24.440Z,63291.66
2023-05-07T16:27:55.273Z,63291.66
2023-05-07T16:30:24.244Z,63291.66
2023-05-07T16:32:54.493Z,63291.66
2023-05-07T16:35:23.472Z,63291.66
2023-05-07T16:37:54.991Z,63291.66
2023-05-07T16:40:23.782Z,63291.66
2023-05-07T16:42:54.759Z,63291.66
2023-05-07T16:45:24.388Z,63291.66
2023-05-07T16:47:53.389Z,63291.66
2023-05-07T16:50:22.356Z,63291.66
2023-05-07T16:52:51.080Z,63291.66
2023-05-07T16:55:21.385Z,63291.66
2023-05-07T16:57:50.104Z,63291.66
2023-05-07T17:00:19.492Z,63291.66
2023-05-07T17:02:48.366Z,63291.66
2023-05-07T17:05:17.410Z,63291.66
2023-05-07T17:07:45.947Z,63291.66
2023-05-07T17:10:14.903Z,63291.66
2023-05-07T17:12:45.490Z,63291.66
2023-05-07T17:15:14.395Z,63291.66
2023-05-07T17:17:43.222Z,63291.66
2023-05-07T17:20:13.531Z,63291.66
2023-05-07T17:22:42.191Z,63291.66
2023-05-07T17:25:12.900Z,63291.66
2023-05-07T17:27:42.220Z,63291.66
2023-05-07T17:30:13.769Z,63291.66
2023-05-07T17:32:42.826Z,63291.66
2023-05-07T17:35:11.560Z,63291.66
2023-05-07T17:37:40.382Z,63291.66
2023-05-07T17:40:10.429Z,63291.66
2023-05-07T17:42:39.080Z,63291.66
2023-05-07T17:45:08.933Z,63291.66
2023-05-07T17:47:39.389Z,63291.66
2023-05-07T17:50:11.697Z,63291.66
2023-05-07T17:52:41.814Z,63291.66
2023-05-07T17:55:11.153Z,63291.66
2023-05-07T17:57:39.934Z,63291.66
2023-05-07T18:00:10.658Z,63291.66
2023-05-07T18:02:42.008Z,63291.66
2023-05-07T18:05:11.282Z,63291.66
2023-05-07T18:07:39.834Z,63291.66
2023-05-07T18:10:09.936Z,63291.66
2023-05-07T18:12:39.188Z,63291.66
2023-05-07T18:15:09.040Z,63291.66
2023-05-07T18:17:38.078Z,63291.66
2023-05-07T18:20:12.898Z,63291.66
2023-05-07T18:22:41.879Z,63291.66
2023-05-07T18:25:11.799Z,63291.66
2023-05-07T18:27:40.593Z,63291.66
2023-05-07T18:30:10.969Z,63291.66
2023-05-07T18:32:39.811Z,63291.66
2023-05-07T18:35:11.481Z,63291.66
2023-05-07T18:37:40.904Z,63291.66
2023-05-07T18:40:11.217Z,63291.66
2023-05-07T18:42:40.365Z,63291.66
2023-05-07T18:45:09.974Z,63291.66
2023-05-07T18:47:39.381Z,63291.66
2023-05-07T18:50:11.363Z,63291.66
2023-05-07T18:52:41.156Z,63291.66
2023-05-07T18:55:11.980Z,63291.66
2023-05-07T18:57:40.779Z,63291.66
2023-05-07T19:00:13.110Z,63291.66
2023-05-07T19:02:42.182Z,63291.66
2023-05-07T19:05:12.872Z,63291.66
2023-05-07T19:07:43.190Z,63291.66
2023-05-07T19:10:12.806Z,63291.66
2023-05-07T19:12:42.145Z,63291.66
2023-05-07T19:15:11.828Z,63291.66
2023-05-07T19:17:41.093Z,63291.66
2023-05-07T19:20:14.848Z,63291.66
2023-05-07T19:22:43.723Z,63291.66
2023-05-07T19:25:13.293Z,63291.66
2023-05-07T19:27:42.175Z,63291.66
2023-05-07T19:30:13.489Z,63291.66
2023-05-07T19:32:42.153Z,63291.66
2023-05-07T19:35:12.661Z,63291.66
2023-05-07T19:37:41.931Z,63291.66
2023-05-07T19:40:11.689Z,63291.66
2023-05-07T19:42:40.762Z,63291.66
2023-05-07T19:45:10.815Z,63291.66
2023-05-07T19:47:39.458Z,63291.66
2023-05-07T19:50:09.846Z,63291.66
2023-05-07T19:52:39.798Z,63291.66
2023-05-07T19:55:09.466Z,63291.66
2023-05-07T19:57:38.116Z,63291.66
2023-05-07T20:00:08.062Z,63291.66
2023-05-07T20:02:37.288Z,63291.66
2023-05-07T20:05:06.417Z,63291.66
2023-05-07T20:07:34.898Z,63291.66
2023-05-07T20:10:05.006Z,63291.66
2023-05-07T20:12:33.591Z,63291.66
2023-05-07T20:15:02.309Z,63291.66
2023-05-07T20:17:30.917Z,63291.66
2023-05-07T20:20:00.224Z,63291.66
2023-05-07T20:22:31.715Z,63291.66
2023-05-07T20:25:00.252Z,63291.66
2023-05-07T20:27:30.137Z,63291.66
2023-05-07T20:29:58.575Z,63291.66
2023-05-07T20:32:27.132Z,63291.66
2023-05-07T20:34:55.949Z,63291.66
2023-05-07T20:37:25.865Z,63291.66
2023-05-07T20:39:54.399Z,63291.66
2023-05-07T20:42:24.071Z,63291.66
2023-05-07T20:44:54.440Z,63291.66
2023-05-07T20:47:23.126Z,63291.66
2023-05-07T20:49:52.785Z,63291.66
2023-05-07T20:52:21.494Z,63291.66
2023-05-07T20:54:50.589Z,63291.66
2023-05-07T20:57:19.862Z,63291.66
2023-05-07T20:59:48.392Z,63291.66
2023-05-07T21:02:18.296Z,63291.66
2023-05-07T21:04:46.973Z,63291.66
2023-05-07T21:07:16.093Z,63291.66
2023-05-07T21:09:44.564Z,63291.66
2023-05-07T21:12:13.111Z,63291.66
2023-05-07T21:14:41.614Z,63291.66
2023-05-07T21:17:10.356Z,63291.66
2023-05-07T21:19:40.621Z,63291.66
2023-05-07T21:22:09.154Z,63291.66
2023-05-07T21:24:37.888Z,63291.66
2023-05-07T21:27:06.344Z,63291.66
2023-05-07T21:29:34.909Z,63291.66
2023-05-07T21:32:04.033Z,63291.66
2023-05-07T21:34:32.740Z,63291.66
2023-05-07T21:37:02.749Z,63291.66
2023-05-07T21:39:31.217Z,63291.66
2023-05-07T21:41:59.735Z,63291.66
2023-05-07T21:44:30.586Z,63291.66
2023-05-07T21:46:59.234Z,63291.66
2023-05-07T21:49:27.748Z,63291.66
2023-05-07T21:51:56.407Z,63291.66
2023-05-07T21:54:26.433Z,63291.66
2023-05-07T21:56:55.172Z,63291.66
2023-05-07T21:59:23.744Z,63291.66
2023-05-07T22:01:52.354Z,63291.66
2023-05-07T22:04:20.803Z,63291.66
2023-05-07T22:06:49.210Z,63291.66
2023-05-07T22:09:18.017Z,63291.66
2023-05-07T22:11:50.961Z,63291.66
2023-05-07T22:14:21.038Z,63291.66
2023-05-07T22:16:49.891Z,63291.66
2023-05-07T22:19:18.385Z,63291.66
2023-05-07T22:21:46.801Z,63291.66
2023-05-07T22:24:15.503Z,63291.66
2023-05-07T22:26:45.372Z,63291.66
2023-05-07T22:29:15.402Z,63291.66
2023-05-07T22:31:44.301Z,63291.66
2023-05-07T22:34:12.841Z,63291.66
2023-05-07T22:36:41.360Z,63291.66
2023-05-07T22:39:10.774Z,63291.66
2023-05-07T22:41:39.455Z,63291.66
2023-05-07T22:44:08.825Z,63291.66
2023-05-07T22:46:38.817Z,63291.66
2023-05-07T22:49:07.388Z,63291.66
2023-05-07T22:51:35.785Z,63291.66
2023-05-07T22:54:04.340Z,63291.66
2023-05-07T22:56:32.829Z,63291.66
2023-05-07T22:59:01.252Z,63291.66
2023-05-07T23:01:29.880Z,63291.66
2023-05-07T23:03:59.842Z,63291.66
2023-05-07T23:06:28.631Z,63291.66
2023-05-07T23:08:57.126Z,63291.66
2023-05-07T23:11:26.525Z,63291.66
2023-05-07T23:13:54.945Z,63291.66
2023-05-07T23:16:23.394Z,63291.66
2023-05-07T23:18:52.628Z,63291.66
2023-05-07T23:21:23.159Z,63291.66
2023-05-07T23:23:51.706Z,63291.66
2023-05-07T23:26:20.365Z,63291.66
2023-05-07T23:28:49.208Z,63291.66
2023-05-07T23:31:17.946Z,63291.66
2023-05-07T23:33:46.615Z,63291.66
2023-05-07T23:36:15.174Z,63291.66
2023-05-07T23:38:45.041Z,63291.66
2023-05-07T23:41:14.184Z,63291.66
2023-05-07T23:43:42.937Z,63291.66
2023-05-07T23:46:11.373Z,63291.66
2023-05-07T23:48:39.864Z,63291.66
2023-05-07T23:51:08.434Z,63291.66
2023-05-07T23:53:37.336Z,63291.66
2023-05-07T23:56:07.459Z,63291.66
2023-05-07T23:58:35.953Z,63291.66
